sensor_id;sensor_type;location;lat;lon;timestamp;pressure;altitude;pressure_sealevel;temperature;humidity
30021;BME280;16861;52.294;7.760;2023-03-25T00:01:06;98367.44;;;10.94;73.78
30021;BME280;16861;52.294;7.760;2023-03-25T00:03:35;98367.34;;;10.96;73.84
30021;BME280;16861;52.294;7.760;2023-03-25T00:06:09;98369.97;;;10.96;73.85
30021;BME280;16861;52.294;7.760;2023-03-25T00:08:36;98371.63;;;10.97;73.97
30021;BME280;16861;52.294;7.760;2023-03-25T00:11:03;98369.25;;;10.94;73.88
30021;BME280;16861;52.294;7.760;2023-03-25T00:13:32;98371.16;;;10.92;74.00
30021;BME280;16861;52.294;7.760;2023-03-25T00:16:00;98366.16;;;10.89;73.98
30021;BME280;16861;52.294;7.760;2023-03-25T00:18:28;98368.31;;;10.84;74.00
30021;BME280;16861;52.294;7.760;2023-03-25T00:21:00;98381.84;;;10.79;73.70
30021;BME280;16861;52.294;7.760;2023-03-25T00:23:29;98371.59;;;10.76;74.03
30021;BME280;16861;52.294;7.760;2023-03-25T00:25:56;98383.31;;;10.72;74.04
30021;BME280;16861;52.294;7.760;2023-03-25T00:28:33;98382.81;;;10.66;72.61
30021;BME280;16861;52.294;7.760;2023-03-25T00:31:01;98371.34;;;10.67;74.51
30021;BME280;16861;52.294;7.760;2023-03-25T00:33:28;98378.63;;;10.64;74.65
30021;BME280;16861;52.294;7.760;2023-03-25T00:35:55;98376.00;;;10.64;74.62
30021;BME280;16861;52.294;7.760;2023-03-25T00:38:25;98376.13;;;10.62;74.68
30021;BME280;16861;52.294;7.760;2023-03-25T00:41:07;98375.53;;;10.59;72.65
30021;BME280;16861;52.294;7.760;2023-03-25T00:43:34;98387.72;;;10.60;74.54
30021;BME280;16861;52.294;7.760;2023-03-25T00:46:00;98372.22;;;10.57;74.26
30021;BME280;16861;52.294;7.760;2023-03-25T00:48:27;98372.31;;;10.55;74.64
30021;BME280;16861;52.294;7.760;2023-03-25T00:50:53;98381.88;;;10.56;74.67
30021;BME280;16861;52.294;7.760;2023-03-25T00:53:20;98376.75;;;10.54;74.92
30021;BME280;16861;52.294;7.760;2023-03-25T00:55:46;98365.50;;;10.52;74.96
30021;BME280;16861;52.294;7.760;2023-03-25T00:58:13;98370.78;;;10.52;74.83
30021;BME280;16861;52.294;7.760;2023-03-25T01:00:39;98361.81;;;10.55;75.14
30021;BME280;16861;52.294;7.760;2023-03-25T01:03:06;98383.66;;;10.55;74.79
30021;BME280;16861;52.294;7.760;2023-03-25T01:05:34;98373.88;;;10.58;74.85
30021;BME280;16861;52.294;7.760;2023-03-25T01:08:01;98368.63;;;10.58;74.65
30021;BME280;16861;52.294;7.760;2023-03-25T01:10:27;98373.88;;;10.58;74.82
30021;BME280;16861;52.294;7.760;2023-03-25T01:12:53;98374.69;;;10.58;74.59
30021;BME280;16861;52.294;7.760;2023-03-25T01:15:20;98378.28;;;10.57;73.73
30021;BME280;16861;52.294;7.760;2023-03-25T01:17:46;98367.66;;;10.59;74.38
30021;BME280;16861;52.294;7.760;2023-03-25T01:20:13;98369.31;;;10.60;74.01
30021;BME280;16861;52.294;7.760;2023-03-25T01:22:39;98361.31;;;10.61;74.26
30021;BME280;16861;52.294;7.760;2023-03-25T01:25:06;98370.75;;;10.64;74.49
30021;BME280;16861;52.294;7.760;2023-03-25T01:27:32;98361.75;;;10.66;74.36
30021;BME280;16861;52.294;7.760;2023-03-25T01:29:59;98360.81;;;10.67;74.49
30021;BME280;16861;52.294;7.760;2023-03-25T01:32:27;98372.06;;;10.69;74.30
30021;BME280;16861;52.294;7.760;2023-03-25T01:34:54;98357.94;;;10.71;74.19
30021;BME280;16861;52.294;7.760;2023-03-25T01:37:20;98365.69;;;10.72;74.17
30021;BME280;16861;52.294;7.760;2023-03-25T01:39:47;98364.03;;;10.71;73.93
30021;BME280;16861;52.294;7.760;2023-03-25T01:42:14;98368.34;;;10.72;73.92
30021;BME280;16861;52.294;7.760;2023-03-25T01:47:09;98353.28;;;10.74;74.12
30021;BME280;16861;52.294;7.760;2023-03-25T01:49:38;98354.22;;;10.73;73.47
30021;BME280;16861;52.294;7.760;2023-03-25T01:52:17;98355.28;;;10.71;72.16
30021;BME280;16861;52.294;7.760;2023-03-25T01:54:47;98348.00;;;10.74;73.88
30021;BME280;16861;52.294;7.760;2023-03-25T01:57:18;98343.69;;;10.73;72.24
30021;BME280;16861;52.294;7.760;2023-03-25T01:59:46;98341.06;;;10.73;73.44
30021;BME280;16861;52.294;7.760;2023-03-25T02:02:14;98351.47;;;10.75;73.85
30021;BME280;16861;52.294;7.760;2023-03-25T02:05:07;98347.28;;;10.72;71.14
30021;BME280;16861;52.294;7.760;2023-03-25T02:07:38;98333.66;;;10.78;73.46
30021;BME280;16861;52.294;7.760;2023-03-25T02:10:09;98358.28;;;10.77;73.05
30021;BME280;16861;52.294;7.760;2023-03-25T02:12:37;98332.91;;;10.76;73.13
30021;BME280;16861;52.294;7.760;2023-03-25T02:15:05;98338.19;;;10.76;72.98
30021;BME280;16861;52.294;7.760;2023-03-25T02:28:49;98338.19;;;10.76;70.69
30021;BME280;16861;52.294;7.760;2023-03-25T02:31:45;98345.09;;;10.77;69.94
30021;BME280;16861;52.294;7.760;2023-03-25T02:34:51;98334.47;;;10.79;69.39
30021;BME280;16861;52.294;7.760;2023-03-25T02:37:33;98337.94;;;10.79;70.44
30021;BME280;16861;52.294;7.760;2023-03-25T02:40:05;98338.06;;;10.78;70.55
30021;BME280;16861;52.294;7.760;2023-03-25T02:42:40;98340.69;;;10.78;70.32
30021;BME280;16861;52.294;7.760;2023-03-25T02:45:27;98336.41;;;10.77;69.65
30021;BME280;16861;52.294;7.760;2023-03-25T02:48:03;98323.13;;;10.78;71.16
30021;BME280;16861;52.294;7.760;2023-03-25T02:50:42;98334.47;;;10.79;70.97
30021;BME280;16861;52.294;7.760;2023-03-25T02:53:16;98347.63;;;10.79;69.40
30021;BME280;16861;52.294;7.760;2023-03-25T02:55:45;98330.03;;;10.79;71.83
30021;BME280;16861;52.294;7.760;2023-03-25T02:58:16;98327.53;;;10.78;70.45
30021;BME280;16861;52.294;7.760;2023-03-25T03:00:44;98332.91;;;10.76;71.60
30021;BME280;16861;52.294;7.760;2023-03-25T03:03:11;98316.16;;;10.77;71.89
30021;BME280;16861;52.294;7.760;2023-03-25T03:05:42;98309.22;;;10.76;70.68
30021;BME280;16861;52.294;7.760;2023-03-25T03:08:22;98309.34;;;10.75;68.31
30021;BME280;16861;52.294;7.760;2023-03-25T03:16:32;98290.94;;;10.75;67.47
30021;BME280;16861;52.294;7.760;2023-03-25T03:24:35;98319.19;;;10.73;69.99
30021;BME280;16861;52.294;7.760;2023-03-25T03:30:34;98310.56;;;10.71;66.57
30021;BME280;16861;52.294;7.760;2023-03-25T03:33:33;98286.75;;;10.72;66.62
30021;BME280;16861;52.294;7.760;2023-03-25T03:36:13;98292.88;;;10.73;67.31
30021;BME280;16861;52.294;7.760;2023-03-25T03:38:49;98300.63;;;10.74;68.72
30021;BME280;16861;52.294;7.760;2023-03-25T03:41:20;98308.53;;;10.74;68.43
30021;BME280;16861;52.294;7.760;2023-03-25T03:46:26;98295.09;;;10.77;69.46
30021;BME280;16861;52.294;7.760;2023-03-25T03:48:56;98306.47;;;10.78;69.75
30021;BME280;16861;52.294;7.760;2023-03-25T03:51:30;98306.34;;;10.79;69.72
30021;BME280;16861;52.294;7.760;2023-03-25T03:54:03;98306.34;;;10.79;69.90
30021;BME280;16861;52.294;7.760;2023-03-25T03:56:39;98306.34;;;10.79;68.99
30021;BME280;16861;52.294;7.760;2023-03-25T03:59:18;98308.13;;;10.79;69.42
30021;BME280;16861;52.294;7.760;2023-03-25T04:01:53;98309.00;;;10.79;69.33
30021;BME280;16861;52.294;7.760;2023-03-25T04:04:22;98307.31;;;10.78;69.68
30021;BME280;16861;52.294;7.760;2023-03-25T04:07:12;98304.09;;;10.75;67.61
30021;BME280;16861;52.294;7.760;2023-03-25T04:09:53;98298.81;;;10.75;68.27
30021;BME280;16861;52.294;7.760;2023-03-25T04:12:27;98303.16;;;10.76;69.57
30021;BME280;16861;52.294;7.760;2023-03-25T04:14:55;98303.16;;;10.76;70.50
30021;BME280;16861;52.294;7.760;2023-03-25T04:17:22;98298.00;;;10.74;71.37
30021;BME280;16861;52.294;7.760;2023-03-25T04:19:49;98306.84;;;10.73;71.44
30021;BME280;16861;52.294;7.760;2023-03-25T04:22:19;98311.53;;;10.69;71.51
30021;BME280;16861;52.294;7.760;2023-03-25T04:24:48;98324.09;;;10.66;71.38
30021;BME280;16861;52.294;7.760;2023-03-25T04:27:15;98303.53;;;10.60;71.60
30021;BME280;16861;52.294;7.760;2023-03-25T04:29:42;98302.94;;;10.56;71.86
30021;BME280;16861;52.294;7.760;2023-03-25T04:32:13;98312.91;;;10.52;72.00
30021;BME280;16861;52.294;7.760;2023-03-25T04:34:40;98314.22;;;10.47;72.03
30021;BME280;16861;52.294;7.760;2023-03-25T04:37:07;98299.59;;;10.42;72.26
30021;BME280;16861;52.294;7.760;2023-03-25T04:39:34;98298.88;;;10.40;72.71
30021;BME280;16861;52.294;7.760;2023-03-25T04:42:00;98298.28;;;10.37;72.45
30021;BME280;16861;52.294;7.760;2023-03-25T04:44:29;98305.50;;;10.35;72.60
30021;BME280;16861;52.294;7.760;2023-03-25T04:47:00;98309.06;;;10.34;72.73
30021;BME280;16861;52.294;7.760;2023-03-25T04:49:27;98320.53;;;10.33;72.44
30021;BME280;16861;52.294;7.760;2023-03-25T04:51:54;98312.66;;;10.33;72.88
30021;BME280;16861;52.294;7.760;2023-03-25T04:54:22;98319.69;;;10.32;72.93
30021;BME280;16861;52.294;7.760;2023-03-25T04:56:50;98309.06;;;10.34;72.92
30021;BME280;16861;52.294;7.760;2023-03-25T04:59:18;98309.91;;;10.34;72.94
30021;BME280;16861;52.294;7.760;2023-03-25T05:01:45;98307.38;;;10.33;72.11
30021;BME280;16861;52.294;7.760;2023-03-25T05:04:14;98296.75;;;10.34;72.42
30021;BME280;16861;52.294;7.760;2023-03-25T05:06:47;98310.03;;;10.33;71.84
30021;BME280;16861;52.294;7.760;2023-03-25T05:09:18;98307.63;;;10.29;72.32
30021;BME280;16861;52.294;7.760;2023-03-25T05:11:45;98312.19;;;10.27;72.45
30021;BME280;16861;52.294;7.760;2023-03-25T05:14:14;98297.84;;;10.20;72.85
30021;BME280;16861;52.294;7.760;2023-03-25T05:16:42;98310.63;;;10.13;73.38
30021;BME280;16861;52.294;7.760;2023-03-25T05:19:09;98310.06;;;10.10;73.49
30021;BME280;16861;52.294;7.760;2023-03-25T05:21:37;98307.19;;;10.01;73.60
30021;BME280;16861;52.294;7.760;2023-03-25T05:24:06;98309.34;;;9.96;74.04
30021;BME280;16861;52.294;7.760;2023-03-25T05:26:36;98303.47;;;9.93;74.21
30021;BME280;16861;52.294;7.760;2023-03-25T05:29:14;98308.25;;;9.87;73.57
30021;BME280;16861;52.294;7.760;2023-03-25T05:31:43;98310.19;;;9.85;74.42
30021;BME280;16861;52.294;7.760;2023-03-25T05:34:14;98308.50;;;9.84;74.90
30021;BME280;16861;52.294;7.760;2023-03-25T05:36:42;98312.19;;;9.82;75.15
30021;BME280;16861;52.294;7.760;2023-03-25T05:39:09;98306.22;;;9.80;75.21
30021;BME280;16861;52.294;7.760;2023-03-25T05:41:36;98304.56;;;9.78;75.23
30021;BME280;16861;52.294;7.760;2023-03-25T05:44:07;98313.63;;;9.74;75.36
30021;BME280;16861;52.294;7.760;2023-03-25T05:46:34;98327.00;;;9.71;75.48
30021;BME280;16861;52.294;7.760;2023-03-25T05:49:01;98321.75;;;9.71;75.64
30021;BME280;16861;52.294;7.760;2023-03-25T05:51:31;98326.03;;;9.72;75.90
30021;BME280;16861;52.294;7.760;2023-03-25T05:54:04;98317.06;;;9.75;75.92
30021;BME280;16861;52.294;7.760;2023-03-25T05:56:36;98332.03;;;9.74;72.67
30021;BME280;16861;52.294;7.760;2023-03-25T05:59:03;98315.66;;;9.82;75.71
30021;BME280;16861;52.294;7.760;2023-03-25T06:01:30;98317.22;;;9.85;76.05
30021;BME280;16861;52.294;7.760;2023-03-25T06:04:00;98321.75;;;9.83;75.37
30021;BME280;16861;52.294;7.760;2023-03-25T06:06:29;98320.56;;;9.87;75.60
30021;BME280;16861;52.294;7.760;2023-03-25T06:08:55;98327.38;;;9.89;75.66
30021;BME280;16861;52.294;7.760;2023-03-25T06:11:22;98347.34;;;9.92;75.43
30021;BME280;16861;52.294;7.760;2023-03-25T06:13:49;98330.38;;;9.96;75.45
30021;BME280;16861;52.294;7.760;2023-03-25T06:16:23;98333.09;;;9.95;73.32
30021;BME280;16861;52.294;7.760;2023-03-25T06:18:55;98332.63;;;10.01;75.41
30021;BME280;16861;52.294;7.760;2023-03-25T06:21:30;98331.81;;;10.00;73.48
30021;BME280;16861;52.294;7.760;2023-03-25T06:23:59;98321.88;;;10.04;74.78
30021;BME280;16861;52.294;7.760;2023-03-25T06:26:27;98330.50;;;10.06;75.18
30021;BME280;16861;52.294;7.760;2023-03-25T06:28:53;98324.84;;;10.11;74.95
30021;BME280;16861;52.294;7.760;2023-03-25T06:31:23;98320.19;;;10.14;75.19
30021;BME280;16861;52.294;7.760;2023-03-25T06:33:53;98326.88;;;10.19;74.84
30021;BME280;16861;52.294;7.760;2023-03-25T06:36:20;98312.53;;;10.23;75.25
30021;BME280;16861;52.294;7.760;2023-03-25T06:38:48;98319.34;;;10.25;74.96
30021;BME280;16861;52.294;7.760;2023-03-25T06:41:16;98322.69;;;10.27;74.66
30021;BME280;16861;52.294;7.760;2023-03-25T06:43:46;98319.84;;;10.30;74.66
30021;BME280;16861;52.294;7.760;2023-03-25T06:46:13;98319.69;;;10.32;74.61
30021;BME280;16861;52.294;7.760;2023-03-25T06:48:40;98325.78;;;10.33;74.18
30021;BME280;16861;52.294;7.760;2023-03-25T06:51:06;98317.66;;;10.36;74.34
30021;BME280;16861;52.294;7.760;2023-03-25T06:53:33;98326.38;;;10.36;74.34
30021;BME280;16861;52.294;7.760;2023-03-25T06:56:00;98315.75;;;10.38;74.25
30021;BME280;16861;52.294;7.760;2023-03-25T06:58:26;98328.78;;;10.39;73.98
30021;BME280;16861;52.294;7.760;2023-03-25T07:01:01;98342.44;;;10.45;74.31
30021;BME280;16861;52.294;7.760;2023-03-25T07:03:34;98329.88;;;10.48;74.15
30021;BME280;16861;52.294;7.760;2023-03-25T07:06:04;98334.88;;;10.51;74.10
30021;BME280;16861;52.294;7.760;2023-03-25T07:08:32;98340.88;;;10.53;73.90
30021;BME280;16861;52.294;7.760;2023-03-25T07:11:04;98327.59;;;10.55;73.53
30021;BME280;16861;52.294;7.760;2023-03-25T07:13:31;98327.59;;;10.55;73.41
30021;BME280;16861;52.294;7.760;2023-03-25T07:15:58;98353.66;;;10.58;73.10
30021;BME280;16861;52.294;7.760;2023-03-25T07:18:25;98329.16;;;10.58;73.09
30021;BME280;16861;52.294;7.760;2023-03-25T07:20:52;98322.06;;;10.58;72.97
30021;BME280;16861;52.294;7.760;2023-03-25T07:23:19;98334.41;;;10.58;73.03
30021;BME280;16861;52.294;7.760;2023-03-25T07:25:46;98323.16;;;10.55;71.96
30021;BME280;16861;52.294;7.760;2023-03-25T07:28:12;98332.59;;;10.58;72.43
30021;BME280;16861;52.294;7.760;2023-03-25T07:30:39;98329.03;;;10.59;72.85
30021;BME280;16861;52.294;7.760;2023-03-25T07:33:06;98336.06;;;10.59;72.70
30021;BME280;16861;52.294;7.760;2023-03-25T07:35:32;98347.31;;;10.61;72.78
30021;BME280;16861;52.294;7.760;2023-03-25T07:37:59;98330.56;;;10.62;73.04
30021;BME280;16861;52.294;7.760;2023-03-25T07:40:26;98337.50;;;10.63;72.60
30021;BME280;16861;52.294;7.760;2023-03-25T07:42:53;98352.31;;;10.64;72.03
30021;BME280;16861;52.294;7.760;2023-03-25T07:45:19;98342.25;;;10.69;72.87
30021;BME280;16861;52.294;7.760;2023-03-25T07:47:46;98326.94;;;10.74;72.85
30021;BME280;16861;52.294;7.760;2023-03-25T07:50:17;98333.50;;;10.80;72.74
30021;BME280;16861;52.294;7.760;2023-03-25T07:52:44;98325.00;;;10.88;73.23
30021;BME280;16861;52.294;7.760;2023-03-25T07:55:11;98333.34;;;10.93;72.48
30021;BME280;16861;52.294;7.760;2023-03-25T07:57:39;98338.38;;;10.96;71.66
30021;BME280;16861;52.294;7.760;2023-03-25T08:00:08;98341.47;;;11.01;71.79
30021;BME280;16861;52.294;7.760;2023-03-25T08:02:36;98343.84;;;11.04;72.06
30021;BME280;16861;52.294;7.760;2023-03-25T08:05:03;98359.66;;;11.04;70.87
30021;BME280;16861;52.294;7.760;2023-03-25T08:07:31;98345.50;;;11.05;71.42
30021;BME280;16861;52.294;7.760;2023-03-25T08:09:58;98338.59;;;11.04;71.18
30021;BME280;16861;52.294;7.760;2023-03-25T08:12:25;98337.63;;;11.05;71.37
30021;BME280;16861;52.294;7.760;2023-03-25T08:14:51;98340.13;;;11.07;71.54
30021;BME280;16861;52.294;7.760;2023-03-25T08:17:18;98332.34;;;11.05;71.60
30021;BME280;16861;52.294;7.760;2023-03-25T08:19:44;98366.59;;;11.05;70.94
30021;BME280;16861;52.294;7.760;2023-03-25T08:22:11;98350.78;;;11.05;71.42
30021;BME280;16861;52.294;7.760;2023-03-25T08:24:37;98349.69;;;11.08;71.74
30021;BME280;16861;52.294;7.760;2023-03-25T08:27:04;98341.78;;;11.08;71.69
30021;BME280;16861;52.294;7.760;2023-03-25T08:29:41;98357.47;;;11.10;71.71
30021;BME280;16861;52.294;7.760;2023-03-25T08:32:08;98357.19;;;11.13;71.51
30021;BME280;16861;52.294;7.760;2023-03-25T08:34:34;98364.84;;;11.16;71.14
30021;BME280;16861;52.294;7.760;2023-03-25T08:37:05;98384.13;;;11.16;70.32
30021;BME280;16861;52.294;7.760;2023-03-25T08:39:36;98372.75;;;11.16;68.98
30021;BME280;16861;52.294;7.760;2023-03-25T08:42:06;98365.47;;;11.19;69.69
30021;BME280;16861;52.294;7.760;2023-03-25T08:44:34;98350.81;;;11.27;70.76
30021;BME280;16861;52.294;7.760;2023-03-25T08:47:00;98355.69;;;11.31;70.69
30021;BME280;16861;52.294;7.760;2023-03-25T08:49:27;98356.03;;;11.38;70.45
30021;BME280;16861;52.294;7.760;2023-03-25T08:51:54;98349.00;;;11.49;70.93
30021;BME280;16861;52.294;7.760;2023-03-25T08:54:26;98347.53;;;11.56;68.32
30021;BME280;16861;52.294;7.760;2023-03-25T08:56:54;98349.53;;;11.64;70.09
30021;BME280;16861;52.294;7.760;2023-03-25T08:59:21;98354.00;;;11.73;70.91
30021;BME280;16861;52.294;7.760;2023-03-25T09:01:47;98348.25;;;11.79;69.69
30021;BME280;16861;52.294;7.760;2023-03-25T09:04:14;98355.75;;;11.84;68.85
30021;BME280;16861;52.294;7.760;2023-03-25T09:06:41;98351.06;;;11.88;68.51
30021;BME280;16861;52.294;7.760;2023-03-25T09:09:28;98357.88;;;11.90;68.06
30021;BME280;16861;52.294;7.760;2023-03-25T09:14:29;98359.41;;;11.93;68.23
30021;BME280;16861;52.294;7.760;2023-03-25T09:16:55;98362.06;;;11.93;68.21
30021;BME280;16861;52.294;7.760;2023-03-25T09:19:22;98356.19;;;11.89;67.53
30021;BME280;16861;52.294;7.760;2023-03-25T09:21:48;98360.63;;;11.89;68.13
30021;BME280;16861;52.294;7.760;2023-03-25T09:24:15;98358.25;;;11.85;68.01
30021;BME280;16861;52.294;7.760;2023-03-25T09:26:41;98382.22;;;11.82;67.03
30021;BME280;16861;52.294;7.760;2023-03-25T09:29:08;98356.59;;;11.84;67.50
30021;BME280;16861;52.294;7.760;2023-03-25T09:31:34;98352.16;;;11.85;67.22
30021;BME280;16861;52.294;7.760;2023-03-25T09:34:01;98352.16;;;11.85;67.74
30021;BME280;16861;52.294;7.760;2023-03-25T09:36:27;98354.94;;;11.83;67.52
30021;BME280;16861;52.294;7.760;2023-03-25T09:38:53;98367.63;;;11.78;66.57
30021;BME280;16861;52.294;7.760;2023-03-25T09:44:00;98378.41;;;11.65;64.59
30021;BME280;16861;52.294;7.760;2023-03-25T09:46:28;98375.19;;;11.62;67.15
30021;BME280;16861;52.294;7.760;2023-03-25T09:48:55;98375.31;;;11.60;67.69
30021;BME280;16861;52.294;7.760;2023-03-25T09:51:26;98382.78;;;11.55;66.61
30021;BME280;16861;52.294;7.760;2023-03-25T09:54:04;98390.81;;;11.53;63.62
30021;BME280;16861;52.294;7.760;2023-03-25T09:56:36;98380.25;;;11.53;65.08
30021;BME280;16861;52.294;7.760;2023-03-25T09:59:13;98386.22;;;11.55;66.30
30021;BME280;16861;52.294;7.760;2023-03-25T10:05:01;98415.94;;;11.57;61.60
30021;BME280;16861;52.294;7.760;2023-03-25T10:07:43;98414.59;;;11.63;63.33
30021;BME280;16861;52.294;7.760;2023-03-25T10:13:49;98400.97;;;11.79;64.47
30021;BME280;16861;52.294;7.760;2023-03-25T10:16:44;98394.66;;;11.92;64.74
30021;BME280;16861;52.294;7.760;2023-03-25T10:24:44;98389.56;;;12.21;68.70
30021;BME280;16861;52.294;7.760;2023-03-25T10:27:18;98398.03;;;12.25;65.89
30021;BME280;16861;52.294;7.760;2023-03-25T10:29:51;98380.00;;;12.30;67.04
30021;BME280;16861;52.294;7.760;2023-03-25T10:32:33;98398.47;;;12.30;64.24
30021;BME280;16861;52.294;7.760;2023-03-25T10:35:03;98406.69;;;12.37;67.30
30021;BME280;16861;52.294;7.760;2023-03-25T10:37:34;98389.63;;;12.41;67.75
30021;BME280;16861;52.294;7.760;2023-03-25T10:40:14;98392.25;;;12.41;63.73
30021;BME280;16861;52.294;7.760;2023-03-25T10:43:13;98380.47;;;12.45;62.52
30021;BME280;16861;52.294;7.760;2023-03-25T10:45:43;98383.16;;;12.55;67.25
30021;BME280;16861;52.294;7.760;2023-03-25T10:48:23;98383.44;;;12.62;67.63
30021;BME280;16861;52.294;7.760;2023-03-25T10:51:08;98392.34;;;12.61;61.57
30021;BME280;16861;52.294;7.760;2023-03-25T10:53:35;98394.56;;;12.66;66.86
30021;BME280;16861;52.294;7.760;2023-03-25T10:56:06;98391.09;;;12.65;65.60
30021;BME280;16861;52.294;7.760;2023-03-25T10:58:36;98381.34;;;12.66;66.05
30021;BME280;16861;52.294;7.760;2023-03-25T11:01:15;98399.84;;;12.66;61.41
30021;BME280;16861;52.294;7.760;2023-03-25T11:03:44;98394.44;;;12.67;65.42
30021;BME280;16861;52.294;7.760;2023-03-25T11:06:26;98395.28;;;12.68;63.54
30021;BME280;16861;52.294;7.760;2023-03-25T11:09:27;98391.41;;;12.72;63.39
30021;BME280;16861;52.294;7.760;2023-03-25T11:12:00;98381.97;;;12.79;66.66
30021;BME280;16861;52.294;7.760;2023-03-25T11:14:28;98393.63;;;12.76;66.03
30021;BME280;16861;52.294;7.760;2023-03-25T11:16:58;98392.09;;;12.74;66.00
30021;BME280;16861;52.294;7.760;2023-03-25T11:19:28;98393.47;;;12.68;65.43
30021;BME280;16861;52.294;7.760;2023-03-25T11:22:02;98388.84;;;12.60;66.49
30021;BME280;16861;52.294;7.760;2023-03-25T11:24:34;98389.41;;;12.54;67.37
30021;BME280;16861;52.294;7.760;2023-03-25T11:27:07;98404.50;;;12.42;67.60
30021;BME280;16861;52.294;7.760;2023-03-25T11:29:35;98393.91;;;12.32;67.96
30021;BME280;16861;52.294;7.760;2023-03-25T11:32:10;98394.13;;;12.19;67.92
30021;BME280;16861;52.294;7.760;2023-03-25T11:34:38;98431.97;;;12.08;67.89
30021;BME280;16861;52.294;7.760;2023-03-25T11:37:18;98402.16;;;11.96;67.94
30021;BME280;16861;52.294;7.760;2023-03-25T11:39:53;98409.06;;;11.88;68.40
30021;BME280;16861;52.294;7.760;2023-03-25T11:42:38;98420.53;;;11.77;68.86
30021;BME280;16861;52.294;7.760;2023-03-25T11:45:33;98441.78;;;11.64;68.93
30021;BME280;16861;52.294;7.760;2023-03-25T11:48:09;98426.03;;;11.52;68.43
30021;BME280;16861;52.294;7.760;2023-03-25T11:50:36;98406.28;;;11.46;70.40
30021;BME280;16861;52.294;7.760;2023-03-25T11:53:04;98408.59;;;11.40;71.26
30021;BME280;16861;52.294;7.760;2023-03-25T11:55:36;98413.88;;;11.40;70.53
30021;BME280;16861;52.294;7.760;2023-03-25T11:58:16;98406.41;;;11.45;70.91
30021;BME280;16861;52.294;7.760;2023-03-25T12:00:51;98405.19;;;11.49;70.41
30021;BME280;16861;52.294;7.760;2023-03-25T12:03:26;98405.88;;;11.51;71.10
30021;BME280;16861;52.294;7.760;2023-03-25T12:06:10;98411.44;;;11.48;70.59
30021;BME280;16861;52.294;7.760;2023-03-25T12:11:19;98407.19;;;11.36;71.33
30021;BME280;16861;52.294;7.760;2023-03-25T12:14:14;98429.25;;;11.23;70.67
30021;BME280;16861;52.294;7.760;2023-03-25T12:25:12;98403.00;;;10.89;72.47
30021;BME280;16861;52.294;7.760;2023-03-25T12:30:30;98411.06;;;10.76;73.02
30021;BME280;16861;52.294;7.760;2023-03-25T12:42:07;98399.56;;;10.54;73.11
30021;BME280;16861;52.294;7.760;2023-03-25T12:45:02;98401.63;;;10.50;73.34
30021;BME280;16861;52.294;7.760;2023-03-25T12:47:38;98398.88;;;10.63;77.53
30021;BME280;16861;52.294;7.760;2023-03-25T12:50:10;98408.03;;;10.92;81.53
30021;BME280;16861;52.294;7.760;2023-03-25T13:00:55;98380.94;;;12.60;75.95
30021;BME280;16861;52.294;7.760;2023-03-25T13:03:42;98376.41;;;12.72;69.14
30021;BME280;16861;52.294;7.760;2023-03-25T13:06:47;98390.41;;;12.73;67.39
30021;BME280;16861;52.294;7.760;2023-03-25T13:09:26;98387.34;;;12.68;67.91
30021;BME280;16861;52.294;7.760;2023-03-25T13:12:02;98382.31;;;12.55;69.74
30021;BME280;16861;52.294;7.760;2023-03-25T13:14:34;98394.34;;;12.37;69.64
30021;BME280;16861;52.294;7.760;2023-03-25T13:17:05;98394.97;;;12.20;69.55
30021;BME280;16861;52.294;7.760;2023-03-25T13:19:36;98390.97;;;12.04;70.24
30021;BME280;16861;52.294;7.760;2023-03-25T13:22:15;98388.91;;;11.86;70.41
30021;BME280;16861;52.294;7.760;2023-03-25T13:24:48;98381.09;;;11.75;70.55
30021;BME280;16861;52.294;7.760;2023-03-25T13:27:16;98373.13;;;11.65;71.56
30021;BME280;16861;52.294;7.760;2023-03-25T13:29:55;98377.63;;;11.53;71.18
30021;BME280;16861;52.294;7.760;2023-03-25T13:32:27;98387.44;;;11.51;72.51
30021;BME280;16861;52.294;7.760;2023-03-25T13:35:05;98375.38;;;11.49;72.95
30021;BME280;16861;52.294;7.760;2023-03-25T13:37:37;98376.97;;;11.61;76.47
30021;BME280;16861;52.294;7.760;2023-03-25T13:42:54;98375.41;;;12.22;78.49
30021;BME280;16861;52.294;7.760;2023-03-25T13:45:24;98375.41;;;12.63;77.38
30021;BME280;16861;52.294;7.760;2023-03-25T13:48:13;98357.38;;;12.88;71.83
30021;BME280;16861;52.294;7.760;2023-03-25T13:50:42;98361.69;;;13.09;73.71
30021;BME280;16861;52.294;7.760;2023-03-25T13:53:14;98355.16;;;13.13;70.66
30021;BME280;16861;52.294;7.760;2023-03-25T14:07:27;98347.19;;;12.74;69.92
30021;BME280;16861;52.294;7.760;2023-03-25T14:10:08;98362.75;;;12.57;70.24
30021;BME280;16861;52.294;7.760;2023-03-25T14:12:43;98344.34;;;12.36;69.77
30021;BME280;16861;52.294;7.760;2023-03-25T14:15:18;98350.81;;;12.22;70.08
30021;BME280;16861;52.294;7.760;2023-03-25T14:17:47;98366.63;;;12.12;71.53
30021;BME280;16861;52.294;7.760;2023-03-25T14:20:19;98385.13;;;12.01;71.53
30021;BME280;16861;52.294;7.760;2023-03-25T14:22:55;98357.16;;;11.88;71.10
30021;BME280;16861;52.294;7.760;2023-03-25T14:25:34;98362.97;;;11.82;70.23
30021;BME280;16861;52.294;7.760;2023-03-25T14:28:03;98367.13;;;11.84;73.41
30021;BME280;16861;52.294;7.760;2023-03-25T14:30:31;98361.13;;;11.82;72.72
30021;BME280;16861;52.294;7.760;2023-03-25T14:32:58;98366.28;;;11.84;72.26
30021;BME280;16861;52.294;7.760;2023-03-25T14:43:44;98357.47;;;12.26;71.95
30021;BME280;16861;52.294;7.760;2023-03-25T14:46:16;98348.41;;;12.50;74.43
30021;BME280;16861;52.294;7.760;2023-03-25T14:51:41;98349.06;;;13.23;65.08
30021;BME280;16861;52.294;7.760;2023-03-25T14:59:36;98346.91;;;14.80;69.05
30021;BME280;16861;52.294;7.760;2023-03-25T15:02:13;98350.53;;;14.97;61.07
30021;BME280;16861;52.294;7.760;2023-03-25T15:04:42;98348.13;;;15.04;65.01
30021;BME280;16861;52.294;7.760;2023-03-25T15:07:13;98343.03;;;14.92;62.82
30021;BME280;16861;52.294;7.760;2023-03-25T15:09:51;98361.97;;;14.69;60.90
30021;BME280;16861;52.294;7.760;2023-03-25T15:18:58;98368.28;;;14.02;64.06